sensor_id;sensor_type;location;lat;lon;timestamp;P1;durP1;ratioP1;P2;durP2;ratioP2
13291;SDS011;6714;53.056;8.690;2022-08-01T00:00:50;1.13;;;1.13;;
13291;SDS011;6714;53.056;8.690;2022-08-01T00:03:32;1.20;;;1.10;;
13291;SDS011;6714;53.056;8.690;2022-08-01T00:06:15;1.33;;;1.33;;
13291;SDS011;6714;53.056;8.690;2022-08-01T00:08:58;1.17;;;1.10;;
13291;SDS011;6714;53.056;8.690;2022-08-01T00:11:40;1.53;;;1.40;;
13291;SDS011;6714;53.056;8.690;2022-08-01T00:14:23;1.00;;;1.00;;
13291;SDS011;6714;53.056;8.690;2022-08-01T00:17:05;1.17;;;1.17;;
13291;SDS011;6714;53.056;8.690;2022-08-01T00:19:47;2.70;;;2.50;;
13291;SDS011;6714;53.056;8.690;2022-08-01T00:22:31;1.93;;;1.83;;
13291;SDS011;6714;53.056;8.690;2022-08-01T00:25:13;2.40;;;2.30;;
13291;SDS011;6714;53.056;8.690;2022-08-01T00:27:55;2.27;;;2.17;;
13291;SDS011;6714;53.056;8.690;2022-08-01T00:30:38;2.77;;;2.67;;
13291;SDS011;6714;53.056;8.690;2022-08-01T00:33:20;2.17;;;2.07;;
13291;SDS011;6714;53.056;8.690;2022-08-01T00:36:02;2.47;;;2.37;;
13291;SDS011;6714;53.056;8.690;2022-08-01T00:38:46;2.17;;;2.00;;
13291;SDS011;6714;53.056;8.690;2022-08-01T00:41:28;2.67;;;2.47;;
13291;SDS011;6714;53.056;8.690;2022-08-01T00:44:10;3.00;;;2.80;;
13291;SDS011;6714;53.056;8.690;2022-08-01T00:46:52;2.80;;;2.60;;
13291;SDS011;6714;53.056;8.690;2022-08-01T00:49:34;3.63;;;3.40;;
13291;SDS011;6714;53.056;8.690;2022-08-01T00:52:17;3.20;;;3.00;;
13291;SDS011;6714;53.056;8.690;2022-08-01T00:55:01;3.03;;;2.73;;
13291;SDS011;6714;53.056;8.690;2022-08-01T00:57:43;2.80;;;2.70;;
13291;SDS011;6714;53.056;8.690;2022-08-01T01:00:25;2.13;;;2.03;;
13291;SDS011;6714;53.056;8.690;2022-08-01T01:03:08;2.80;;;2.60;;
13291;SDS011;6714;53.056;8.690;2022-08-01T01:05:52;2.73;;;2.63;;
13291;SDS011;6714;53.056;8.690;2022-08-01T01:08:38;2.63;;;2.53;;
13291;SDS011;6714;53.056;8.690;2022-08-01T01:11:25;3.30;;;3.10;;
13291;SDS011;6714;53.056;8.690;2022-08-01T01:14:09;3.40;;;3.20;;
13291;SDS011;6714;53.056;8.690;2022-08-01T01:16:52;3.07;;;2.57;;
13291;SDS011;6714;53.056;8.690;2022-08-01T01:19:36;3.87;;;3.47;;
13291;SDS011;6714;53.056;8.690;2022-08-01T01:22:32;3.00;;;2.80;;
13291;SDS011;6714;53.056;8.690;2022-08-01T01:25:22;3.17;;;2.97;;
13291;SDS011;6714;53.056;8.690;2022-08-01T01:28:09;3.37;;;3.17;;
13291;SDS011;6714;53.056;8.690;2022-08-01T01:30:55;2.70;;;2.50;;
13291;SDS011;6714;53.056;8.690;2022-08-01T01:33:39;3.50;;;3.20;;
13291;SDS011;6714;53.056;8.690;2022-08-01T01:36:22;2.83;;;2.63;;
13291;SDS011;6714;53.056;8.690;2022-08-01T01:39:06;4.27;;;3.93;;
13291;SDS011;6714;53.056;8.690;2022-08-01T01:41:48;3.97;;;3.57;;
13291;SDS011;6714;53.056;8.690;2022-08-01T01:44:31;2.00;;;1.90;;
13291;SDS011;6714;53.056;8.690;2022-08-01T01:47:16;1.93;;;1.83;;
13291;SDS011;6714;53.056;8.690;2022-08-01T01:49:58;1.70;;;1.63;;
13291;SDS011;6714;53.056;8.690;2022-08-01T01:52:42;2.23;;;2.13;;
13291;SDS011;6714;53.056;8.690;2022-08-01T01:55:25;3.43;;;3.23;;
13291;SDS011;6714;53.056;8.690;2022-08-01T01:58:08;5.57;;;5.07;;
13291;SDS011;6714;53.056;8.690;2022-08-01T02:00:52;3.87;;;3.57;;
13291;SDS011;6714;53.056;8.690;2022-08-01T02:03:36;3.10;;;2.90;;
13291;SDS011;6714;53.056;8.690;2022-08-01T02:06:20;4.37;;;4.03;;
13291;SDS011;6714;53.056;8.690;2022-08-01T02:09:03;2.90;;;2.70;;
13291;SDS011;6714;53.056;8.690;2022-08-01T02:11:47;2.93;;;2.63;;
13291;SDS011;6714;53.056;8.690;2022-08-01T02:14:30;2.20;;;2.10;;
13291;SDS011;6714;53.056;8.690;2022-08-01T02:17:16;2.20;;;2.10;;
13291;SDS011;6714;53.056;8.690;2022-08-01T02:20:00;2.37;;;2.27;;
13291;SDS011;6714;53.056;8.690;2022-08-01T02:22:44;2.03;;;1.90;;
13291;SDS011;6714;53.056;8.690;2022-08-01T02:25:29;2.20;;;2.10;;
13291;SDS011;6714;53.056;8.690;2022-08-01T02:28:15;1.47;;;1.47;;
13291;SDS011;6714;53.056;8.690;2022-08-01T02:31:00;1.47;;;1.47;;
13291;SDS011;6714;53.056;8.690;2022-08-01T02:33:45;2.10;;;2.00;;
13291;SDS011;6714;53.056;8.690;2022-08-01T02:36:29;2.17;;;2.07;;
13291;SDS011;6714;53.056;8.690;2022-08-01T02:39:13;2.37;;;2.27;;
13291;SDS011;6714;53.056;8.690;2022-08-01T02:41:57;2.97;;;2.87;;
13291;SDS011;6714;53.056;8.690;2022-08-01T02:44:41;2.40;;;2.30;;
13291;SDS011;6714;53.056;8.690;2022-08-01T02:47:25;2.97;;;2.77;;
13291;SDS011;6714;53.056;8.690;2022-08-01T02:50:08;2.27;;;2.17;;
13291;SDS011;6714;53.056;8.690;2022-08-01T02:52:54;2.47;;;2.37;;
13291;SDS011;6714;53.056;8.690;2022-08-01T02:55:38;1.70;;;1.70;;
13291;SDS011;6714;53.056;8.690;2022-08-01T02:58:21;3.60;;;3.30;;
13291;SDS011;6714;53.056;8.690;2022-08-01T03:01:04;2.30;;;2.20;;
13291;SDS011;6714;53.056;8.690;2022-08-01T03:03:47;3.77;;;3.47;;
13291;SDS011;6714;53.056;8.690;2022-08-01T03:06:29;3.20;;;2.90;;
13291;SDS011;6714;53.056;8.690;2022-08-01T03:09:13;3.80;;;3.60;;
13291;SDS011;6714;53.056;8.690;2022-08-01T03:11:57;3.57;;;3.33;;
13291;SDS011;6714;53.056;8.690;2022-08-01T03:14:41;2.60;;;2.50;;
13291;SDS011;6714;53.056;8.690;2022-08-01T03:17:24;3.73;;;3.53;;
13291;SDS011;6714;53.056;8.690;2022-08-01T03:20:07;3.03;;;2.83;;
13291;SDS011;6714;53.056;8.690;2022-08-01T03:22:50;5.00;;;4.60;;
13291;SDS011;6714;53.056;8.690;2022-08-01T03:25:34;2.90;;;2.70;;
13291;SDS011;6714;53.056;8.690;2022-08-01T03:28:17;3.23;;;3.03;;
13291;SDS011;6714;53.056;8.690;2022-08-01T03:31:01;4.13;;;3.83;;
13291;SDS011;6714;53.056;8.690;2022-08-01T03:33:44;3.10;;;2.90;;
13291;SDS011;6714;53.056;8.690;2022-08-01T03:36:26;2.73;;;2.43;;
13291;SDS011;6714;53.056;8.690;2022-08-01T03:39:10;2.40;;;2.30;;
13291;SDS011;6714;53.056;8.690;2022-08-01T03:41:56;3.07;;;2.87;;
13291;SDS011;6714;53.056;8.690;2022-08-01T03:44:40;2.87;;;2.67;;
13291;SDS011;6714;53.056;8.690;2022-08-01T03:47:24;2.70;;;2.50;;
13291;SDS011;6714;53.056;8.690;2022-08-01T03:50:08;2.37;;;2.17;;
13291;SDS011;6714;53.056;8.690;2022-08-01T03:52:51;3.20;;;2.20;;
13291;SDS011;6714;53.056;8.690;2022-08-01T03:55:35;2.40;;;2.30;;
13291;SDS011;6714;53.056;8.690;2022-08-01T03:58:19;2.40;;;2.20;;
13291;SDS011;6714;53.056;8.690;2022-08-01T04:01:02;2.53;;;2.33;;
13291;SDS011;6714;53.056;8.690;2022-08-01T04:03:45;2.73;;;2.50;;
13291;SDS011;6714;53.056;8.690;2022-08-01T04:06:28;1.90;;;1.80;;
13291;SDS011;6714;53.056;8.690;2022-08-01T04:09:11;1.60;;;1.60;;
13291;SDS011;6714;53.056;8.690;2022-08-01T04:11:53;1.90;;;1.80;;
13291;SDS011;6714;53.056;8.690;2022-08-01T04:14:36;2.33;;;2.23;;
13291;SDS011;6714;53.056;8.690;2022-08-01T04:17:19;2.23;;;2.10;;
13291;SDS011;6714;53.056;8.690;2022-08-01T04:20:01;2.73;;;2.53;;
13291;SDS011;6714;53.056;8.690;2022-08-01T04:22:44;2.13;;;2.03;;
13291;SDS011;6714;53.056;8.690;2022-08-01T04:25:28;0.97;;;0.97;;
13291;SDS011;6714;53.056;8.690;2022-08-01T04:28:12;3.00;;;2.80;;
13291;SDS011;6714;53.056;8.690;2022-08-01T04:30:58;1.97;;;1.87;;
13291;SDS011;6714;53.056;8.690;2022-08-01T04:33:40;1.20;;;1.20;;
13291;SDS011;6714;53.056;8.690;2022-08-01T04:36:25;1.90;;;1.80;;
13291;SDS011;6714;53.056;8.690;2022-08-01T04:39:07;1.80;;;1.70;;
13291;SDS011;6714;53.056;8.690;2022-08-01T04:41:50;2.13;;;1.97;;
13291;SDS011;6714;53.056;8.690;2022-08-01T04:44:36;1.50;;;1.40;;
13291;SDS011;6714;53.056;8.690;2022-08-01T04:47:20;2.43;;;1.80;;
13291;SDS011;6714;53.056;8.690;2022-08-01T04:50:03;1.40;;;1.30;;
13291;SDS011;6714;53.056;8.690;2022-08-01T04:52:47;2.73;;;1.50;;
13291;SDS011;6714;53.056;8.690;2022-08-01T04:55:31;1.47;;;1.23;;
13291;SDS011;6714;53.056;8.690;2022-08-01T04:58:13;1.40;;;1.30;;
13291;SDS011;6714;53.056;8.690;2022-08-01T05:00:56;1.27;;;1.10;;
13291;SDS011;6714;53.056;8.690;2022-08-01T05:03:40;1.83;;;1.40;;
13291;SDS011;6714;53.056;8.690;2022-08-01T05:06:24;1.60;;;1.23;;
13291;SDS011;6714;53.056;8.690;2022-08-01T05:09:06;1.37;;;1.10;;
13291;SDS011;6714;53.056;8.690;2022-08-01T05:11:48;1.37;;;1.27;;
13291;SDS011;6714;53.056;8.690;2022-08-01T05:14:31;2.13;;;1.50;;
13291;SDS011;6714;53.056;8.690;2022-08-01T05:17:14;2.30;;;1.30;;
13291;SDS011;6714;53.056;8.690;2022-08-01T05:19:58;2.87;;;1.70;;
13291;SDS011;6714;53.056;8.690;2022-08-01T05:22:40;2.40;;;1.30;;
13291;SDS011;6714;53.056;8.690;2022-08-01T05:25:22;1.83;;;1.40;;
13291;SDS011;6714;53.056;8.690;2022-08-01T05:28:05;1.97;;;1.20;;
13291;SDS011;6714;53.056;8.690;2022-08-01T05:30:47;2.63;;;1.20;;
13291;SDS011;6714;53.056;8.690;2022-08-01T05:33:30;2.87;;;1.30;;
13291;SDS011;6714;53.056;8.690;2022-08-01T05:36:13;3.17;;;1.40;;
13291;SDS011;6714;53.056;8.690;2022-08-01T05:38:56;2.33;;;1.40;;
13291;SDS011;6714;53.056;8.690;2022-08-01T05:41:38;2.53;;;1.30;;
13291;SDS011;6714;53.056;8.690;2022-08-01T05:44:20;2.53;;;1.40;;
13291;SDS011;6714;53.056;8.690;2022-08-01T05:47:03;4.00;;;1.53;;
13291;SDS011;6714;53.056;8.690;2022-08-01T05:49:45;1.40;;;1.30;;
13291;SDS011;6714;53.056;8.690;2022-08-01T05:52:29;1.70;;;1.30;;
13291;SDS011;6714;53.056;8.690;2022-08-01T05:55:11;4.60;;;1.67;;
13291;SDS011;6714;53.056;8.690;2022-08-01T05:57:54;1.70;;;1.57;;
13291;SDS011;6714;53.056;8.690;2022-08-01T06:00:36;3.00;;;1.73;;
13291;SDS011;6714;53.056;8.690;2022-08-01T06:03:18;4.43;;;1.93;;
13291;SDS011;6714;53.056;8.690;2022-08-01T06:06:01;4.80;;;2.40;;
13291;SDS011;6714;53.056;8.690;2022-08-01T06:08:44;3.00;;;1.73;;
13291;SDS011;6714;53.056;8.690;2022-08-01T06:11:27;5.33;;;2.47;;
13291;SDS011;6714;53.056;8.690;2022-08-01T06:14:09;2.57;;;1.77;;
13291;SDS011;6714;53.056;8.690;2022-08-01T06:16:51;1.60;;;1.50;;
13291;SDS011;6714;53.056;8.690;2022-08-01T06:19:34;3.73;;;2.00;;
13291;SDS011;6714;53.056;8.690;2022-08-01T06:22:16;2.27;;;1.30;;
13291;SDS011;6714;53.056;8.690;2022-08-01T06:25:02;2.20;;;1.50;;
13291;SDS011;6714;53.056;8.690;2022-08-01T06:27:44;3.83;;;1.90;;
13291;SDS011;6714;53.056;8.690;2022-08-01T06:30:27;2.90;;;1.70;;
13291;SDS011;6714;53.056;8.690;2022-08-01T06:33:09;3.63;;;1.90;;
13291;SDS011;6714;53.056;8.690;2022-08-01T06:35:52;3.53;;;1.90;;
13291;SDS011;6714;53.056;8.690;2022-08-01T06:38:34;3.57;;;1.73;;
13291;SDS011;6714;53.056;8.690;2022-08-01T06:41:18;2.03;;;1.60;;
13291;SDS011;6714;53.056;8.690;2022-08-01T06:44:00;3.07;;;1.70;;
13291;SDS011;6714;53.056;8.690;2022-08-01T06:46:44;4.53;;;1.93;;
13291;SDS011;6714;53.056;8.690;2022-08-01T06:49:26;3.23;;;1.87;;
13291;SDS011;6714;53.056;8.690;2022-08-01T06:52:08;2.13;;;1.70;;
13291;SDS011;6714;53.056;8.690;2022-08-01T06:54:51;3.63;;;1.60;;
13291;SDS011;6714;53.056;8.690;2022-08-01T06:57:35;3.93;;;1.93;;
13291;SDS011;6714;53.056;8.690;2022-08-01T07:00:18;3.70;;;1.77;;
13291;SDS011;6714;53.056;8.690;2022-08-01T07:03:02;2.73;;;1.60;;
13291;SDS011;6714;53.056;8.690;2022-08-01T07:05:44;3.93;;;1.63;;
13291;SDS011;6714;53.056;8.690;2022-08-01T07:08:27;4.00;;;2.33;;
13291;SDS011;6714;53.056;8.690;2022-08-01T07:11:10;3.97;;;1.97;;
13291;SDS011;6714;53.056;8.690;2022-08-01T07:13:54;4.03;;;1.97;;
13291;SDS011;6714;53.056;8.690;2022-08-01T07:16:37;5.63;;;2.63;;
13291;SDS011;6714;53.056;8.690;2022-08-01T07:19:20;4.70;;;2.13;;
13291;SDS011;6714;53.056;8.690;2022-08-01T07:22:02;5.83;;;2.60;;
13291;SDS011;6714;53.056;8.690;2022-08-01T07:24:44;6.17;;;2.67;;
13291;SDS011;6714;53.056;8.690;2022-08-01T07:27:27;5.03;;;2.30;;
13291;SDS011;6714;53.056;8.690;2022-08-01T07:30:11;3.53;;;2.10;;
13291;SDS011;6714;53.056;8.690;2022-08-01T07:32:56;7.67;;;2.80;;
13291;SDS011;6714;53.056;8.690;2022-08-01T07:35:39;5.43;;;2.50;;
13291;SDS011;6714;53.056;8.690;2022-08-01T07:38:21;6.70;;;2.30;;
13291;SDS011;6714;53.056;8.690;2022-08-01T07:41:03;5.03;;;2.30;;
13291;SDS011;6714;53.056;8.690;2022-08-01T07:43:45;3.77;;;1.93;;
13291;SDS011;6714;53.056;8.690;2022-08-01T07:46:30;5.20;;;2.23;;
13291;SDS011;6714;53.056;8.690;2022-08-01T07:49:14;5.33;;;2.17;;
13291;SDS011;6714;53.056;8.690;2022-08-01T07:51:56;5.33;;;2.10;;
13291;SDS011;6714;53.056;8.690;2022-08-01T07:54:38;6.30;;;2.57;;
13291;SDS011;6714;53.056;8.690;2022-08-01T07:57:20;6.73;;;2.57;;
13291;SDS011;6714;53.056;8.690;2022-08-01T08:00:03;5.00;;;2.10;;
13291;SDS011;6714;53.056;8.690;2022-08-01T08:02:47;4.53;;;2.27;;
13291;SDS011;6714;53.056;8.690;2022-08-01T08:05:29;4.10;;;2.03;;
13291;SDS011;6714;53.056;8.690;2022-08-01T08:08:13;5.87;;;2.13;;
13291;SDS011;6714;53.056;8.690;2022-08-01T08:10:57;10.13;;;2.83;;
13291;SDS011;6714;53.056;8.690;2022-08-01T08:13:39;7.83;;;3.10;;
13291;SDS011;6714;53.056;8.690;2022-08-01T08:16:21;4.77;;;2.63;;
13291;SDS011;6714;53.056;8.690;2022-08-01T08:19:05;7.43;;;3.13;;
13291;SDS011;6714;53.056;8.690;2022-08-01T08:21:47;6.43;;;2.50;;
13291;SDS011;6714;53.056;8.690;2022-08-01T08:24:29;4.60;;;2.20;;
13291;SDS011;6714;53.056;8.690;2022-08-01T08:27:12;8.43;;;2.47;;
13291;SDS011;6714;53.056;8.690;2022-08-01T08:29:54;6.50;;;2.37;;
13291;SDS011;6714;53.056;8.690;2022-08-01T08:32:36;6.83;;;2.50;;
13291;SDS011;6714;53.056;8.690;2022-08-01T08:35:20;6.27;;;2.00;;
13291;SDS011;6714;53.056;8.690;2022-08-01T08:38:02;4.10;;;1.77;;
13291;SDS011;6714;53.056;8.690;2022-08-01T08:40:45;7.57;;;3.10;;
13291;SDS011;6714;53.056;8.690;2022-08-01T08:43:27;5.27;;;2.50;;
13291;SDS011;6714;53.056;8.690;2022-08-01T08:46:10;6.63;;;2.20;;
13291;SDS011;6714;53.056;8.690;2022-08-01T08:48:54;5.90;;;2.30;;
13291;SDS011;6714;53.056;8.690;2022-08-01T08:51:39;6.27;;;2.50;;
13291;SDS011;6714;53.056;8.690;2022-08-01T08:54:23;5.67;;;2.40;;
13291;SDS011;6714;53.056;8.690;2022-08-01T08:57:05;6.60;;;2.50;;
13291;SDS011;6714;53.056;8.690;2022-08-01T08:59:48;7.40;;;2.27;;
13291;SDS011;6714;53.056;8.690;2022-08-01T09:02:34;5.13;;;2.10;;
13291;SDS011;6714;53.056;8.690;2022-08-01T09:05:16;6.30;;;2.53;;
13291;SDS011;6714;53.056;8.690;2022-08-01T09:08:07;5.00;;;2.03;;
13291;SDS011;6714;53.056;8.690;2022-08-01T09:10:50;7.00;;;2.20;;
13291;SDS011;6714;53.056;8.690;2022-08-01T09:13:32;5.37;;;2.13;;
13291;SDS011;6714;53.056;8.690;2022-08-01T09:16:15;8.13;;;2.37;;
13291;SDS011;6714;53.056;8.690;2022-08-01T09:19:09;6.68;;;2.40;;
13291;SDS011;6714;53.056;8.690;2022-08-01T09:21:55;6.50;;;2.27;;
13291;SDS011;6714;53.056;8.690;2022-08-01T09:24:40;4.17;;;2.03;;
13291;SDS011;6714;53.056;8.690;2022-08-01T09:27:22;3.40;;;1.65;;
13291;SDS011;6714;53.056;8.690;2022-08-01T09:30:09;6.20;;;2.13;;
13291;SDS011;6714;53.056;8.690;2022-08-01T09:32:53;4.75;;;1.98;;
13291;SDS011;6714;53.056;8.690;2022-08-01T09:35:36;5.18;;;2.13;;
13291;SDS011;6714;53.056;8.690;2022-08-01T09:38:21;3.83;;;2.28;;
13291;SDS011;6714;53.056;8.690;2022-08-01T09:41:06;6.32;;;2.25;;
13291;SDS011;6714;53.056;8.690;2022-08-01T09:43:50;6.95;;;2.20;;
13291;SDS011;6714;53.056;8.690;2022-08-01T09:46:32;3.83;;;1.65;;
13291;SDS011;6714;53.056;8.690;2022-08-01T09:49:26;3.90;;;1.75;;
13291;SDS011;6714;53.056;8.690;2022-08-01T09:52:10;4.88;;;2.10;;
13291;SDS011;6714;53.056;8.690;2022-08-01T09:54:53;2.72;;;1.80;;
13291;SDS011;6714;53.056;8.690;2022-08-01T09:57:36;5.43;;;2.08;;
13291;SDS011;6714;53.056;8.690;2022-08-01T10:00:19;3.25;;;1.58;;
13291;SDS011;6714;53.056;8.690;2022-08-01T10:03:18;5.20;;;1.63;;
13291;SDS011;6714;53.056;8.690;2022-08-01T10:06:00;4.20;;;1.88;;
13291;SDS011;6714;53.056;8.690;2022-08-01T10:09:00;3.38;;;1.75;;
13291;SDS011;6714;53.056;8.690;2022-08-01T10:11:43;4.35;;;1.73;;
13291;SDS011;6714;53.056;8.690;2022-08-01T10:14:27;4.22;;;2.10;;
13291;SDS011;6714;53.056;8.690;2022-08-01T10:17:11;5.57;;;2.17;;
13291;SDS011;6714;53.056;8.690;2022-08-01T10:19:54;2.28;;;1.40;;
13291;SDS011;6714;53.056;8.690;2022-08-01T10:22:37;2.60;;;1.70;;
13291;SDS011;6714;53.056;8.690;2022-08-01T10:25:20;4.75;;;1.77;;
13291;SDS011;6714;53.056;8.690;2022-08-01T10:28:05;2.55;;;1.45;;
13291;SDS011;6714;53.056;8.690;2022-08-01T10:30:50;4.07;;;1.83;;
13291;SDS011;6714;53.056;8.690;2022-08-01T10:33:32;4.05;;;1.50;;
13291;SDS011;6714;53.056;8.690;2022-08-01T10:36:17;2.85;;;1.70;;
13291;SDS011;6714;53.056;8.690;2022-08-01T10:38:59;3.72;;;1.70;;
13291;SDS011;6714;53.056;8.690;2022-08-01T10:41:42;3.50;;;1.80;;
13291;SDS011;6714;53.056;8.690;2022-08-01T10:44:24;4.10;;;1.90;;
13291;SDS011;6714;53.056;8.690;2022-08-01T10:47:09;2.50;;;1.40;;
13291;SDS011;6714;53.056;8.690;2022-08-01T10:49:53;2.50;;;1.40;;
13291;SDS011;6714;53.056;8.690;2022-08-01T10:52:38;3.03;;;1.65;;
13291;SDS011;6714;53.056;8.690;2022-08-01T10:55:21;4.18;;;2.05;;
13291;SDS011;6714;53.056;8.690;2022-08-01T10:58:07;3.20;;;2.03;;
13291;SDS011;6714;53.056;8.690;2022-08-01T11:03:58;2.95;;;1.63;;
13291;SDS011;6714;53.056;8.690;2022-08-01T11:06:48;3.55;;;1.67;;
13291;SDS011;6714;53.056;8.690;2022-08-01T11:09:38;3.33;;;1.50;;
13291;SDS011;6714;53.056;8.690;2022-08-01T11:12:20;2.75;;;1.67;;
13291;SDS011;6714;53.056;8.690;2022-08-01T11:15:22;4.88;;;1.83;;
13291;SDS011;6714;53.056;8.690;2022-08-01T11:21:07;4.28;;;1.80;;
13291;SDS011;6714;53.056;8.690;2022-08-01T11:23:50;2.08;;;1.33;;
13291;SDS011;6714;53.056;8.690;2022-08-01T11:26:33;2.85;;;1.70;;
13291;SDS011;6714;53.056;8.690;2022-08-01T11:29:17;3.60;;;1.85;;
13291;SDS011;6714;53.056;8.690;2022-08-01T11:32:13;5.38;;;2.08;;
13291;SDS011;6714;53.056;8.690;2022-08-01T11:35:06;3.38;;;1.60;;
13291;SDS011;6714;53.056;8.690;2022-08-01T11:37:49;2.20;;;1.45;;
13291;SDS011;6714;53.056;8.690;2022-08-01T11:40:32;4.25;;;1.80;;
13291;SDS011;6714;53.056;8.690;2022-08-01T11:43:17;4.03;;;1.60;;
13291;SDS011;6714;53.056;8.690;2022-08-01T11:46:00;4.00;;;1.70;;
13291;SDS011;6714;53.056;8.690;2022-08-01T11:48:43;3.38;;;1.70;;
13291;SDS011;6714;53.056;8.690;2022-08-01T11:51:27;3.55;;;1.75;;
13291;SDS011;6714;53.056;8.690;2022-08-01T11:54:11;3.45;;;1.70;;
13291;SDS011;6714;53.056;8.690;2022-08-01T11:56:57;2.83;;;1.70;;
13291;SDS011;6714;53.056;8.690;2022-08-01T11:59:41;5.03;;;1.98;;
13291;SDS011;6714;53.056;8.690;2022-08-01T12:02:26;5.95;;;1.60;;
13291;SDS011;6714;53.056;8.690;2022-08-01T12:05:10;3.88;;;1.80;;
13291;SDS011;6714;53.056;8.690;2022-08-01T12:07:53;2.40;;;1.60;;
13291;SDS011;6714;53.056;8.690;2022-08-01T12:10:37;4.25;;;1.65;;
13291;SDS011;6714;53.056;8.690;2022-08-01T12:13:20;3.85;;;1.90;;
13291;SDS011;6714;53.056;8.690;2022-08-01T12:16:06;2.70;;;1.48;;
13291;SDS011;6714;53.056;8.690;2022-08-01T12:18:49;7.03;;;1.92;;
13291;SDS011;6714;53.056;8.690;2022-08-01T12:21:31;3.35;;;1.55;;
13291;SDS011;6714;53.056;8.690;2022-08-01T12:24:21;3.63;;;1.67;;
13291;SDS011;6714;53.056;8.690;2022-08-01T12:27:05;2.65;;;1.33;;
13291;SDS011;6714;53.056;8.690;2022-08-01T12:29:48;5.10;;;1.92;;
13291;SDS011;6714;53.056;8.690;2022-08-01T12:32:32;2.92;;;1.70;;
13291;SDS011;6714;53.056;8.690;2022-08-01T12:35:16;3.13;;;1.50;;
13291;SDS011;6714;53.056;8.690;2022-08-01T12:38:01;2.75;;;1.58;;
13291;SDS011;6714;53.056;8.690;2022-08-01T12:40:44;2.00;;;1.40;;
13291;SDS011;6714;53.056;8.690;2022-08-01T12:43:29;1.70;;;1.30;;
13291;SDS011;6714;53.056;8.690;2022-08-01T12:46:14;3.67;;;1.63;;
13291;SDS011;6714;53.056;8.690;2022-08-01T12:48:57;2.72;;;1.67;;
13291;SDS011;6714;53.056;8.690;2022-08-01T12:51:39;4.15;;;1.60;;
13291;SDS011;6714;53.056;8.690;2022-08-01T12:54:22;4.07;;;1.40;;
13291;SDS011;6714;53.056;8.690;2022-08-01T12:57:09;2.80;;;1.70;;
13291;SDS011;6714;53.056;8.690;2022-08-01T13:00:12;2.72;;;1.60;;
13291;SDS011;6714;53.056;8.690;2022-08-01T13:03:00;2.85;;;1.38;;
13291;SDS011;6714;53.056;8.690;2022-08-01T13:05:44;2.05;;;1.45;;
13291;SDS011;6714;53.056;8.690;2022-08-01T13:08:29;2.90;;;1.27;;
13291;SDS011;6714;53.056;8.690;2022-08-01T13:11:11;2.35;;;1.50;;
13291;SDS011;6714;53.056;8.690;2022-08-01T13:13:54;2.60;;;1.33;;
13291;SDS011;6714;53.056;8.690;2022-08-01T13:19:45;4.18;;;1.77;;
13291;SDS011;6714;53.056;8.690;2022-08-01T13:22:31;3.15;;;1.65;;
13291;SDS011;6714;53.056;8.690;2022-08-01T13:25:14;1.50;;;1.38;;
13291;SDS011;6714;53.056;8.690;2022-08-01T13:30:55;4.43;;;1.88;;
13291;SDS011;6714;53.056;8.690;2022-08-01T13:33:41;3.53;;;1.77;;
13291;SDS011;6714;53.056;8.690;2022-08-01T13:36:25;3.33;;;1.30;;
13291;SDS011;6714;53.056;8.690;2022-08-01T13:39:08;2.13;;;1.33;;
13291;SDS011;6714;53.056;8.690;2022-08-01T13:42:16;2.38;;;1.33;;
13291;SDS011;6714;53.056;8.690;2022-08-01T13:44:59;1.65;;;1.30;;
13291;SDS011;6714;53.056;8.690;2022-08-01T13:47:41;2.00;;;1.42;;
13291;SDS011;6714;53.056;8.690;2022-08-01T13:50:24;2.60;;;1.40;;
13291;SDS011;6714;53.056;8.690;2022-08-01T13:53:07;1.92;;;1.35;;
13291;SDS011;6714;53.056;8.690;2022-08-01T13:55:50;1.55;;;1.10;;
13291;SDS011;6714;53.056;8.690;2022-08-01T13:58:32;4.28;;;1.80;;
13291;SDS011;6714;53.056;8.690;2022-08-01T14:01:14;2.22;;;1.33;;
13291;SDS011;6714;53.056;8.690;2022-08-01T14:03:56;2.00;;;1.48;;
13291;SDS011;6714;53.056;8.690;2022-08-01T14:06:38;1.30;;;1.17;;
13291;SDS011;6714;53.056;8.690;2022-08-01T14:09:22;3.92;;;1.40;;
13291;SDS011;6714;53.056;8.690;2022-08-01T14:12:05;1.83;;;1.23;;
13291;SDS011;6714;53.056;8.690;2022-08-01T14:14:47;2.95;;;1.45;;
13291;SDS011;6714;53.056;8.690;2022-08-01T14:17:37;2.85;;;1.42;;
13291;SDS011;6714;53.056;8.690;2022-08-01T14:20:19;3.30;;;1.48;;
13291;SDS011;6714;53.056;8.690;2022-08-01T14:23:02;1.98;;;1.15;;
13291;SDS011;6714;53.056;8.690;2022-08-01T14:25:44;2.63;;;1.15;;
13291;SDS011;6714;53.056;8.690;2022-08-01T14:28:26;1.90;;;1.30;;
13291;SDS011;6714;53.056;8.690;2022-08-01T14:31:10;2.58;;;1.35;;
13291;SDS011;6714;53.056;8.690;2022-08-01T14:33:53;3.72;;;1.55;;
13291;SDS011;6714;53.056;8.690;2022-08-01T14:36:35;1.90;;;1.10;;
13291;SDS011;6714;53.056;8.690;2022-08-01T14:39:17;3.22;;;1.70;;
13291;SDS011;6714;53.056;8.690;2022-08-01T14:42:00;2.13;;;1.42;;
13291;SDS011;6714;53.056;8.690;2022-08-01T14:44:42;2.78;;;1.50;;
13291;SDS011;6714;53.056;8.690;2022-08-01T14:47:24;2.35;;;1.33;;
13291;SDS011;6714;53.056;8.690;2022-08-01T14:50:09;2.72;;;1.40;;
13291;SDS011;6714;53.056;8.690;2022-08-01T14:52:51;2.72;;;1.15;;
13291;SDS011;6714;53.056;8.690;2022-08-01T14:55:33;1.88;;;1.38;;
13291;SDS011;6714;53.056;8.690;2022-08-01T14:58:15;2.70;;;1.30;;
13291;SDS011;6714;53.056;8.690;2022-08-01T15:00:57;2.45;;;1.70;;
13291;SDS011;6714;53.056;8.690;2022-08-01T15:03:40;3.58;;;1.40;;
13291;SDS011;6714;53.056;8.690;2022-08-01T15:06:23;2.67;;;1.45;;
13291;SDS011;6714;53.056;8.690;2022-08-01T15:09:06;1.23;;;1.13;;
13291;SDS011;6714;53.056;8.690;2022-08-01T15:11:48;1.30;;;1.15;;
13291;SDS011;6714;53.056;8.690;2022-08-01T15:14:30;1.75;;;1.33;;
13291;SDS011;6714;53.056;8.690;2022-08-01T15:17:31;3.53;;;1.40;;
13291;SDS011;6714;53.056;8.690;2022-08-01T15:20:13;2.42;;;1.50;;
13291;SDS011;6714;53.056;8.690;2022-08-01T15:22:57;3.53;;;1.98;;
13291;SDS011;6714;53.056;8.690;2022-08-01T15:25:39;1.42;;;1.20;;
13291;SDS011;6714;53.056;8.690;2022-08-01T15:28:21;3.85;;;1.63;;
13291;SDS011;6714;53.056;8.690;2022-08-01T15:31:03;3.05;;;1.45;;
13291;SDS011;6714;53.056;8.690;2022-08-01T15:33:45;3.83;;;1.67;;
13291;SDS011;6714;53.056;8.690;2022-08-01T15:36:28;2.00;;;1.40;;
13291;SDS011;6714;53.056;8.690;2022-08-01T15:39:11;2.28;;;1.30;;
13291;SDS011;6714;53.056;8.690;2022-08-01T15:41:54;2.28;;;1.30;;
13291;SDS011;6714;53.056;8.690;2022-08-01T15:44:39;2.35;;;1.58;;
13291;SDS011;6714;53.056;8.690;2022-08-01T15:47:21;2.15;;;1.35;;
13291;SDS011;6714;53.056;8.690;2022-08-01T15:50:04;2.20;;;1.33;;
13291;SDS011;6714;53.056;8.690;2022-08-01T15:52:46;4.93;;;1.83;;
13291;SDS011;6714;53.056;8.690;2022-08-01T15:55:30;3.30;;;1.73;;
13291;SDS011;6714;53.056;8.690;2022-08-01T15:58:12;2.60;;;1.48;;
13291;SDS011;6714;53.056;8.690;2022-08-01T16:00:54;1.25;;;1.10;;
13291;SDS011;6714;53.056;8.690;2022-08-01T16:03:37;1.30;;;1.20;;
13291;SDS011;6714;53.056;8.690;2022-08-01T16:06:19;2.33;;;1.60;;
13291;SDS011;6714;53.056;8.690;2022-08-01T16:09:01;3.78;;;1.67;;
13291;SDS011;6714;53.056;8.690;2022-08-01T16:11:45;2.50;;;1.50;;
13291;SDS011;6714;53.056;8.690;2022-08-01T16:14:27;3.13;;;1.50;;
13291;SDS011;6714;53.056;8.690;2022-08-01T16:17:09;1.65;;;1.40;;
13291;SDS011;6714;53.056;8.690;2022-08-01T16:19:51;1.65;;;1.40;;
13291;SDS011;6714;53.056;8.690;2022-08-01T16:22:33;2.72;;;1.40;;
13291;SDS011;6714;53.056;8.690;2022-08-01T16:25:16;2.65;;;1.55;;
13291;SDS011;6714;53.056;8.690;2022-08-01T16:27:59;2.97;;;1.60;;
13291;SDS011;6714;53.056;8.690;2022-08-01T16:30:41;4.22;;;2.22;;
13291;SDS011;6714;53.056;8.690;2022-08-01T16:33:24;5.15;;;1.70;;
13291;SDS011;6714;53.056;8.690;2022-08-01T16:36:06;2.20;;;1.50;;
13291;SDS011;6714;53.056;8.690;2022-08-01T16:38:48;3.20;;;1.55;;
13291;SDS011;6714;53.056;8.690;2022-08-01T16:41:30;2.33;;;1.50;;
13291;SDS011;6714;53.056;8.690;2022-08-01T16:44:14;2.92;;;1.60;;
13291;SDS011;6714;53.056;8.690;2022-08-01T16:46:56;3.33;;;1.73;;
13291;SDS011;6714;53.056;8.690;2022-08-01T16:49:38;2.97;;;1.58;;
13291;SDS011;6714;53.056;8.690;2022-08-01T16:52:20;3.50;;;1.70;;